sensor_id;sensor_type;location;lat;lon;timestamp;pressure;altitude;pressure_sealevel;temperature;humidity
78623;BME280;67943;54.412;9.502;2023-07-16T00:00:08;100528.81;;;18.53;81.66
78623;BME280;67943;54.412;9.502;2023-07-16T00:05:11;100575.63;;;18.43;82.42
78623;BME280;67943;54.412;9.502;2023-07-16T00:10:13;100557.50;;;18.34;82.83
78623;BME280;67943;54.412;9.502;2023-07-16T00:15:14;100532.22;;;18.41;82.24
78623;BME280;67943;54.412;9.502;2023-07-16T00:20:17;100547.19;;;18.43;82.38
78623;BME280;67943;54.412;9.502;2023-07-16T00:25:19;100536.78;;;18.39;82.52
78623;BME280;67943;54.412;9.502;2023-07-16T00:30:20;100544.50;;;18.43;82.34
78623;BME280;67943;54.412;9.502;2023-07-16T00:35:23;100527.09;;;18.52;81.65
78623;BME280;67943;54.412;9.502;2023-07-16T00:40:24;100557.53;;;18.48;81.69
78623;BME280;67943;54.412;9.502;2023-07-16T00:45:26;100575.19;;;18.35;82.01
78623;BME280;67943;54.412;9.502;2023-07-16T00:50:30;100567.53;;;18.29;82.45
78623;BME280;67943;54.412;9.502;2023-07-16T00:55:35;100587.84;;;18.15;82.78
78623;BME280;67943;54.412;9.502;2023-07-16T01:00:38;100550.75;;;18.12;83.22
78623;BME280;67943;54.412;9.502;2023-07-16T01:05:49;100545.81;;;18.20;82.84
78623;BME280;67943;54.412;9.502;2023-07-16T01:10:51;100518.00;;;18.10;82.80
78623;BME280;67943;54.412;9.502;2023-07-16T01:15:52;100540.06;;;17.97;82.94
78623;BME280;67943;54.412;9.502;2023-07-16T01:20:56;100541.66;;;17.85;83.57
78623;BME280;67943;54.412;9.502;2023-07-16T01:26:06;100509.19;;;17.78;82.48
78623;BME280;67943;54.412;9.502;2023-07-16T01:31:10;100527.41;;;17.86;81.74
78623;BME280;67943;54.412;9.502;2023-07-16T01:36:12;100528.94;;;17.90;81.36
78623;BME280;67943;54.412;9.502;2023-07-16T01:41:14;100556.06;;;17.97;80.35
78623;BME280;67943;54.412;9.502;2023-07-16T01:46:17;100530.13;;;17.84;81.37
78623;BME280;67943;54.412;9.502;2023-07-16T01:51:19;100548.53;;;17.89;81.24
78623;BME280;67943;54.412;9.502;2023-07-16T01:56:20;100556.41;;;17.75;80.80
78623;BME280;67943;54.412;9.502;2023-07-16T02:01:23;100562.91;;;17.69;80.60
78623;BME280;67943;54.412;9.502;2023-07-16T02:06:24;100571.66;;;17.71;79.98
78623;BME280;67943;54.412;9.502;2023-07-16T02:11:26;100571.59;;;17.73;81.00
78623;BME280;67943;54.412;9.502;2023-07-16T02:16:29;100567.19;;;17.72;80.37
78623;BME280;67943;54.412;9.502;2023-07-16T02:21:30;100585.06;;;17.70;80.55
78623;BME280;67943;54.412;9.502;2023-07-16T02:26:32;100586.56;;;17.58;81.36
78623;BME280;67943;54.412;9.502;2023-07-16T02:31:35;100595.59;;;17.38;82.73
78623;BME280;67943;54.412;9.502;2023-07-16T02:36:37;100595.50;;;17.40;82.75
78623;BME280;67943;54.412;9.502;2023-07-16T02:41:38;100603.91;;;17.32;83.39
78623;BME280;67943;54.412;9.502;2023-07-16T02:46:41;100612.41;;;17.39;83.11
78623;BME280;67943;54.412;9.502;2023-07-16T02:51:44;100611.53;;;17.38;83.00
78623;BME280;67943;54.412;9.502;2023-07-16T02:56:45;100603.72;;;17.52;81.12
78623;BME280;67943;54.412;9.502;2023-07-16T03:01:48;100604.66;;;17.34;81.59
78623;BME280;67943;54.412;9.502;2023-07-16T03:06:50;100615.13;;;17.37;81.59
78623;BME280;67943;54.412;9.502;2023-07-16T03:11:51;100601.25;;;17.32;81.29
78623;BME280;67943;54.412;9.502;2023-07-16T03:16:54;100600.91;;;17.38;80.54
78623;BME280;67943;54.412;9.502;2023-07-16T03:21:55;100594.88;;;17.35;81.18
78623;BME280;67943;54.412;9.502;2023-07-16T03:26:57;100599.34;;;17.34;80.20
78623;BME280;67943;54.412;9.502;2023-07-16T03:32:00;100598.16;;;17.40;79.91
78623;BME280;67943;54.412;9.502;2023-07-16T03:37:01;100601.41;;;17.29;80.38
78623;BME280;67943;54.412;9.502;2023-07-16T03:42:03;100606.38;;;17.35;80.22
78623;BME280;67943;54.412;9.502;2023-07-16T03:47:06;100602.16;;;17.48;79.52
78623;BME280;67943;54.412;9.502;2023-07-16T03:52:08;100589.94;;;17.44;79.72
78623;BME280;67943;54.412;9.502;2023-07-16T03:57:09;100591.19;;;17.37;79.83
78623;BME280;67943;54.412;9.502;2023-07-16T04:02:12;100587.59;;;17.38;79.50
78623;BME280;67943;54.412;9.502;2023-07-16T04:07:13;100599.19;;;17.37;79.38
78623;BME280;67943;54.412;9.502;2023-07-16T04:12:15;100604.66;;;17.34;78.99
78623;BME280;67943;54.412;9.502;2023-07-16T04:17:18;100601.84;;;17.37;79.09
78623;BME280;67943;54.412;9.502;2023-07-16T04:22:19;100613.06;;;17.27;78.84
78623;BME280;67943;54.412;9.502;2023-07-16T04:27:21;100610.16;;;17.31;79.38
78623;BME280;67943;54.412;9.502;2023-07-16T04:32:23;100619.41;;;17.24;79.59
78623;BME280;67943;54.412;9.502;2023-07-16T04:37:25;100616.66;;;17.26;79.51
78623;BME280;67943;54.412;9.502;2023-07-16T04:42:26;100617.03;;;17.35;78.86
78623;BME280;67943;54.412;9.502;2023-07-16T04:47:29;100616.44;;;17.30;79.34
78623;BME280;67943;54.412;9.502;2023-07-16T04:52:31;100618.41;;;17.42;78.93
78623;BME280;67943;54.412;9.502;2023-07-16T04:57:32;100614.97;;;17.40;79.07
78623;BME280;67943;54.412;9.502;2023-07-16T05:02:35;100635.78;;;17.49;78.81
78623;BME280;67943;54.412;9.502;2023-07-16T05:07:37;100627.03;;;17.47;78.74
78623;BME280;67943;54.412;9.502;2023-07-16T05:12:38;100648.63;;;17.59;78.35
78623;BME280;67943;54.412;9.502;2023-07-16T05:17:41;100644.53;;;17.69;77.81
78623;BME280;67943;54.412;9.502;2023-07-16T05:22:43;100639.34;;;17.83;77.32
78623;BME280;67943;54.412;9.502;2023-07-16T05:27:44;100654.78;;;17.92;76.02
78623;BME280;67943;54.412;9.502;2023-07-16T05:32:47;100650.41;;;17.91;75.31
78623;BME280;67943;54.412;9.502;2023-07-16T05:37:49;100665.19;;;17.97;73.85
78623;BME280;67943;54.412;9.502;2023-07-16T05:42:50;100670.41;;;18.15;73.51
78623;BME280;67943;54.412;9.502;2023-07-16T05:47:53;100667.97;;;18.11;73.18
78623;BME280;67943;54.412;9.502;2023-07-16T05:52:54;100657.31;;;18.27;73.27
78623;BME280;67943;54.412;9.502;2023-07-16T05:57:56;100672.00;;;18.49;71.98
78623;BME280;67943;54.412;9.502;2023-07-16T06:02:59;100660.72;;;18.62;71.64
78623;BME280;67943;54.412;9.502;2023-07-16T06:08:01;100689.25;;;18.75;70.11
78623;BME280;67943;54.412;9.502;2023-07-16T06:13:03;100670.38;;;18.78;70.04
78623;BME280;67943;54.412;9.502;2023-07-16T06:18:06;100673.66;;;18.83;70.61
78623;BME280;67943;54.412;9.502;2023-07-16T06:23:07;100684.56;;;18.95;70.09
78623;BME280;67943;54.412;9.502;2023-07-16T06:28:11;100691.03;;;18.91;69.39
78623;BME280;67943;54.412;9.502;2023-07-16T06:33:14;100707.63;;;18.96;68.94
78623;BME280;67943;54.412;9.502;2023-07-16T06:38:16;100685.16;;;19.00;68.37
78623;BME280;67943;54.412;9.502;2023-07-16T06:43:17;100675.97;;;19.05;68.01
78623;BME280;67943;54.412;9.502;2023-07-16T06:48:20;100688.47;;;19.19;67.73
78623;BME280;67943;54.412;9.502;2023-07-16T06:53:22;100715.41;;;19.44;67.85
78623;BME280;67943;54.412;9.502;2023-07-16T06:58:32;100701.72;;;19.50;65.48
78623;BME280;67943;54.412;9.502;2023-07-16T07:03:35;100701.38;;;19.71;65.96
78623;BME280;67943;54.412;9.502;2023-07-16T07:08:37;100701.31;;;19.86;65.24
78623;BME280;67943;54.412;9.502;2023-07-16T07:13:38;100717.22;;;19.88;64.95
78623;BME280;67943;54.412;9.502;2023-07-16T07:18:41;100706.47;;;19.89;64.55
78623;BME280;67943;54.412;9.502;2023-07-16T07:23:43;100705.78;;;20.00;62.88
78623;BME280;67943;54.412;9.502;2023-07-16T07:28:44;100701.22;;;20.16;63.26
78623;BME280;67943;54.412;9.502;2023-07-16T07:33:47;100697.50;;;20.19;62.40
78623;BME280;67943;54.412;9.502;2023-07-16T07:38:48;100703.22;;;20.41;61.78
78623;BME280;67943;54.412;9.502;2023-07-16T07:43:52;100707.03;;;20.37;61.22
78623;BME280;67943;54.412;9.502;2023-07-16T07:48:55;100712.84;;;20.15;60.62
78623;BME280;67943;54.412;9.502;2023-07-16T07:53:56;100722.00;;;20.11;60.74
78623;BME280;67943;54.412;9.502;2023-07-16T07:58:58;100715.34;;;20.18;60.58
78623;BME280;67943;54.412;9.502;2023-07-16T08:04:00;100724.50;;;20.43;59.30
78623;BME280;67943;54.412;9.502;2023-07-16T08:09:02;100719.84;;;20.73;59.81
78623;BME280;67943;54.412;9.502;2023-07-16T08:14:04;100721.88;;;20.97;59.63
78623;BME280;67943;54.412;9.502;2023-07-16T08:19:06;100715.19;;;21.16;57.04
78623;BME280;67943;54.412;9.502;2023-07-16T08:24:08;100732.94;;;21.44;57.73
78623;BME280;67943;54.412;9.502;2023-07-16T08:29:10;100730.00;;;21.87;56.28
78623;BME280;67943;54.412;9.502;2023-07-16T08:34:12;100726.56;;;21.60;55.58
78623;BME280;67943;54.412;9.502;2023-07-16T08:39:14;100700.09;;;21.68;54.84
78623;BME280;67943;54.412;9.502;2023-07-16T08:44:20;100732.88;;;21.59;54.38
78623;BME280;67943;54.412;9.502;2023-07-16T08:49:23;100732.50;;;21.38;55.27
78623;BME280;67943;54.412;9.502;2023-07-16T08:54:24;100745.50;;;21.56;55.22
78623;BME280;67943;54.412;9.502;2023-07-16T08:59:26;100749.13;;;21.43;54.74
78623;BME280;67943;54.412;9.502;2023-07-16T09:04:29;100758.09;;;21.15;56.49
78623;BME280;67943;54.412;9.502;2023-07-16T09:09:31;100744.72;;;21.42;56.55
78623;BME280;67943;54.412;9.502;2023-07-16T09:14:32;100746.84;;;22.02;55.86
78623;BME280;67943;54.412;9.502;2023-07-16T09:19:35;100773.50;;;21.78;56.23
78623;BME280;67943;54.412;9.502;2023-07-16T09:24:37;100775.41;;;21.76;56.15
78623;BME280;67943;54.412;9.502;2023-07-16T09:29:39;100779.94;;;21.88;56.59
78623;BME280;67943;54.412;9.502;2023-07-16T09:34:41;100780.63;;;22.04;56.17
78623;BME280;67943;54.412;9.502;2023-07-16T09:39:46;100791.34;;;22.04;54.29
78623;BME280;67943;54.412;9.502;2023-07-16T09:44:48;100794.97;;;22.03;55.59
78623;BME280;67943;54.412;9.502;2023-07-16T09:49:50;100811.44;;;21.97;55.58
78623;BME280;67943;54.412;9.502;2023-07-16T09:54:55;100807.66;;;22.14;54.58
78623;BME280;67943;54.412;9.502;2023-07-16T09:59:58;100813.19;;;22.23;54.91
78623;BME280;67943;54.412;9.502;2023-07-16T10:05:12;100816.59;;;22.76;54.98
78623;BME280;67943;54.412;9.502;2023-07-16T10:10:14;100827.81;;;23.07;53.21
78623;BME280;67943;54.412;9.502;2023-07-16T10:15:25;100832.25;;;22.95;53.24
78623;BME280;67943;54.412;9.502;2023-07-16T10:20:29;100836.97;;;22.92;52.89
78623;BME280;67943;54.412;9.502;2023-07-16T10:25:31;100845.69;;;22.57;54.14
78623;BME280;67943;54.412;9.502;2023-07-16T10:30:33;100844.91;;;23.06;53.41
78623;BME280;67943;54.412;9.502;2023-07-16T10:35:40;100846.22;;;22.87;51.99
78623;BME280;67943;54.412;9.502;2023-07-16T10:40:43;100882.00;;;23.12;51.75
78623;BME280;67943;54.412;9.502;2023-07-16T10:45:45;100857.94;;;23.47;50.55
78623;BME280;67943;54.412;9.502;2023-07-16T10:50:53;100856.84;;;23.49;50.77
78623;BME280;67943;54.412;9.502;2023-07-16T10:55:54;100873.72;;;22.78;51.55
78623;BME280;67943;54.412;9.502;2023-07-16T11:00:56;100878.19;;;22.90;50.64
78623;BME280;67943;54.412;9.502;2023-07-16T11:06:05;100870.34;;;22.87;50.86
78623;BME280;67943;54.412;9.502;2023-07-16T11:11:07;100878.31;;;23.26;51.31
78623;BME280;67943;54.412;9.502;2023-07-16T11:16:09;100881.34;;;23.21;51.44
78623;BME280;67943;54.412;9.502;2023-07-16T11:21:12;100892.56;;;23.02;52.11
78623;BME280;67943;54.412;9.502;2023-07-16T11:26:14;100890.44;;;22.69;52.80
78623;BME280;67943;54.412;9.502;2023-07-16T11:31:16;100904.09;;;22.79;52.17
78623;BME280;67943;54.412;9.502;2023-07-16T11:36:19;100925.72;;;22.76;52.52
78623;BME280;67943;54.412;9.502;2023-07-16T11:41:21;100912.06;;;22.15;53.64
78623;BME280;67943;54.412;9.502;2023-07-16T11:46:22;100949.09;;;21.55;55.98
78623;BME280;67943;54.412;9.502;2023-07-16T11:51:25;100970.28;;;20.44;65.46
78623;BME280;67943;54.412;9.502;2023-07-16T11:56:27;100957.78;;;20.59;66.42
78623;BME280;67943;54.412;9.502;2023-07-16T12:01:28;100951.38;;;21.61;62.58
78623;BME280;67943;54.412;9.502;2023-07-16T12:06:31;100953.56;;;22.22;57.15
78623;BME280;67943;54.412;9.502;2023-07-16T12:11:32;100939.78;;;23.05;52.94
78623;BME280;67943;54.412;9.502;2023-07-16T12:16:34;100937.75;;;23.58;53.18
78623;BME280;67943;54.412;9.502;2023-07-16T12:21:37;100917.63;;;24.46;49.76
78623;BME280;67943;54.412;9.502;2023-07-16T12:26:38;100939.19;;;24.68;48.51
78623;BME280;67943;54.412;9.502;2023-07-16T12:31:40;100945.56;;;24.89;47.13
78623;BME280;67943;54.412;9.502;2023-07-16T12:36:42;100931.59;;;24.84;46.54
78623;BME280;67943;54.412;9.502;2023-07-16T12:41:44;100939.66;;;24.84;46.69
78623;BME280;67943;54.412;9.502;2023-07-16T12:46:46;100953.38;;;24.92;46.27
78623;BME280;67943;54.412;9.502;2023-07-16T12:51:49;100956.22;;;24.80;46.71
78623;BME280;67943;54.412;9.502;2023-07-16T12:56:50;100943.28;;;24.15;47.23
78623;BME280;67943;54.412;9.502;2023-07-16T13:01:52;100952.56;;;23.50;48.00
78623;BME280;67943;54.412;9.502;2023-07-16T13:06:55;100954.97;;;24.03;48.24
78623;BME280;67943;54.412;9.502;2023-07-16T13:11:56;100977.28;;;24.16;47.74
78623;BME280;67943;54.412;9.502;2023-07-16T13:16:58;100964.09;;;24.00;46.61
78623;BME280;67943;54.412;9.502;2023-07-16T13:22:03;100978.97;;;24.17;46.50
78623;BME280;67943;54.412;9.502;2023-07-16T13:27:04;100982.28;;;24.44;46.43
78623;BME280;67943;54.412;9.502;2023-07-16T13:32:07;100973.13;;;24.58;43.82
78623;BME280;67943;54.412;9.502;2023-07-16T13:37:10;100987.78;;;24.19;45.72
78623;BME280;67943;54.412;9.502;2023-07-16T13:42:12;100996.78;;;24.31;45.61
78623;BME280;67943;54.412;9.502;2023-07-16T13:47:13;101000.63;;;24.39;45.61
78623;BME280;67943;54.412;9.502;2023-07-16T13:52:16;101008.38;;;24.31;45.75
78623;BME280;67943;54.412;9.502;2023-07-16T13:57:18;101031.38;;;24.11;46.30
78623;BME280;67943;54.412;9.502;2023-07-16T14:02:20;101024.91;;;23.90;46.69
78623;BME280;67943;54.412;9.502;2023-07-16T14:07:22;101014.47;;;23.62;47.03
78623;BME280;67943;54.412;9.502;2023-07-16T14:12:24;101028.34;;;23.55;47.46
78623;BME280;67943;54.412;9.502;2023-07-16T14:17:26;101036.63;;;23.52;48.79
78623;BME280;67943;54.412;9.502;2023-07-16T14:22:28;101033.59;;;23.57;47.94
78623;BME280;67943;54.412;9.502;2023-07-16T14:27:30;101049.44;;;23.73;47.70
78623;BME280;67943;54.412;9.502;2023-07-16T14:32:33;101047.75;;;23.46;48.31
78623;BME280;67943;54.412;9.502;2023-07-16T14:37:36;101036.28;;;23.19;49.46
78623;BME280;67943;54.412;9.502;2023-07-16T14:42:38;101042.09;;;23.38;50.36
78623;BME280;67943;54.412;9.502;2023-07-16T14:47:39;101045.81;;;23.48;49.72
78623;BME280;67943;54.412;9.502;2023-07-16T14:52:42;101042.09;;;23.13;49.46
78623;BME280;67943;54.412;9.502;2023-07-16T14:57:44;101035.97;;;23.11;49.66
78623;BME280;67943;54.412;9.502;2023-07-16T15:02:45;101044.56;;;22.78;49.46
78623;BME280;67943;54.412;9.502;2023-07-16T15:07:48;101046.44;;;22.76;50.52
78623;BME280;67943;54.412;9.502;2023-07-16T15:12:50;101039.13;;;22.65;50.23
78623;BME280;67943;54.412;9.502;2023-07-16T15:17:51;101039.47;;;22.73;50.76
78623;BME280;67943;54.412;9.502;2023-07-16T15:22:54;101050.97;;;22.75;51.29
78623;BME280;67943;54.412;9.502;2023-07-16T15:27:56;101055.41;;;22.49;51.57
78623;BME280;67943;54.412;9.502;2023-07-16T15:32:59;101074.41;;;22.05;51.44
78623;BME280;67943;54.412;9.502;2023-07-16T15:38:02;101071.34;;;22.11;51.87
78623;BME280;67943;54.412;9.502;2023-07-16T15:43:04;101066.53;;;22.16;51.68
78623;BME280;67943;54.412;9.502;2023-07-16T15:48:05;101077.09;;;22.05;52.33
78623;BME280;67943;54.412;9.502;2023-07-16T15:53:08;101073.16;;;22.38;51.72
78623;BME280;67943;54.412;9.502;2023-07-16T15:58:10;101071.63;;;22.34;51.74
78623;BME280;67943;54.412;9.502;2023-07-16T16:03:12;101079.00;;;22.03;53.66
78623;BME280;67943;54.412;9.502;2023-07-16T16:08:16;101084.00;;;21.81;54.08
78623;BME280;67943;54.412;9.502;2023-07-16T16:13:19;101074.91;;;21.83;54.78
78623;BME280;67943;54.412;9.502;2023-07-16T16:18:22;101074.81;;;21.85;54.46
78623;BME280;67943;54.412;9.502;2023-07-16T16:23:25;101083.00;;;21.96;54.53
78623;BME280;67943;54.412;9.502;2023-07-16T16:28:27;101093.69;;;21.55;58.17
78623;BME280;67943;54.412;9.502;2023-07-16T16:33:28;101108.00;;;21.26;61.88
78623;BME280;67943;54.412;9.502;2023-07-16T16:38:34;101096.13;;;20.71;63.90
78623;BME280;67943;54.412;9.502;2023-07-16T16:43:36;101116.38;;;20.75;64.33
78623;BME280;67943;54.412;9.502;2023-07-16T16:48:37;101118.88;;;20.78;64.78
78623;BME280;67943;54.412;9.502;2023-07-16T16:53:40;101122.97;;;21.14;64.28
78623;BME280;67943;54.412;9.502;2023-07-16T16:58:42;101119.69;;;21.09;64.09
78623;BME280;67943;54.412;9.502;2023-07-16T17:03:43;101129.00;;;21.17;64.24
78623;BME280;67943;54.412;9.502;2023-07-16T17:08:46;101126.06;;;21.22;64.20
78623;BME280;67943;54.412;9.502;2023-07-16T17:13:48;101134.25;;;21.19;64.21
78623;BME280;67943;54.412;9.502;2023-07-16T17:18:50;101139.19;;;21.41;63.75
78623;BME280;67943;54.412;9.502;2023-07-16T17:23:52;101135.28;;;21.32;63.84
78623;BME280;67943;54.412;9.502;2023-07-16T17:28:54;101144.09;;;21.18;64.98
78623;BME280;67943;54.412;9.502;2023-07-16T17:33:55;101144.94;;;21.05;65.26
78623;BME280;67943;54.412;9.502;2023-07-16T17:38:58;101148.16;;;20.96;65.28
78623;BME280;67943;54.412;9.502;2023-07-16T17:44:00;101151.66;;;20.66;65.58
78623;BME280;67943;54.412;9.502;2023-07-16T17:49:01;101160.13;;;20.59;65.85
78623;BME280;67943;54.412;9.502;2023-07-16T17:54:06;101168.56;;;20.51;66.70
78623;BME280;67943;54.412;9.502;2023-07-16T17:59:07;101163.78;;;20.42;65.76
78623;BME280;67943;54.412;9.502;2023-07-16T18:04:10;101173.25;;;20.47;66.27
78623;BME280;67943;54.412;9.502;2023-07-16T18:09:13;101176.34;;;20.40;65.55
78623;BME280;67943;54.412;9.502;2023-07-16T18:14:15;101184.75;;;20.32;65.02
78623;BME280;67943;54.412;9.502;2023-07-16T18:19:16;101173.72;;;20.22;65.20
78623;BME280;67943;54.412;9.502;2023-07-16T18:24:19;101180.94;;;20.38;64.28
78623;BME280;67943;54.412;9.502;2023-07-16T18:29:21;101175.34;;;20.25;64.65
78623;BME280;67943;54.412;9.502;2023-07-16T18:34:22;101176.91;;;20.29;64.63
78623;BME280;67943;54.412;9.502;2023-07-16T18:39:25;101173.84;;;20.21;64.03
78623;BME280;67943;54.412;9.502;2023-07-16T18:44:27;101179.19;;;20.21;64.02
78623;BME280;67943;54.412;9.502;2023-07-16T18:49:28;101175.34;;;20.25;63.88
78623;BME280;67943;54.412;9.502;2023-07-16T18:54:31;101185.97;;;20.27;63.52
78623;BME280;67943;54.412;9.502;2023-07-16T18:59:33;101195.47;;;20.16;63.88
78623;BME280;67943;54.412;9.502;2023-07-16T19:04:34;101214.09;;;20.18;63.98
78623;BME280;67943;54.412;9.502;2023-07-16T19:09:37;101214.09;;;20.18;63.73
78623;BME280;67943;54.412;9.502;2023-07-16T19:14:38;101213.38;;;20.14;64.54
78623;BME280;67943;54.412;9.502;2023-07-16T19:19:40;101209.53;;;19.87;66.97
78623;BME280;67943;54.412;9.502;2023-07-16T19:24:43;101210.25;;;19.73;68.73
78623;BME280;67943;54.412;9.502;2023-07-16T19:29:44;101219.59;;;19.65;69.74
78623;BME280;67943;54.412;9.502;2023-07-16T19:34:46;101224.47;;;19.39;71.81
78623;BME280;67943;54.412;9.502;2023-07-16T19:39:49;101229.81;;;19.39;71.87
78623;BME280;67943;54.412;9.502;2023-07-16T19:44:51;101227.28;;;19.36;72.13
78623;BME280;67943;54.412;9.502;2023-07-16T19:49:53;101229.50;;;19.28;72.66
78623;BME280;67943;54.412;9.502;2023-07-16T19:54:56;101229.31;;;19.14;73.35
78623;BME280;67943;54.412;9.502;2023-07-16T20:00:00;101237.91;;;18.84;74.63
78623;BME280;67943;54.412;9.502;2023-07-16T20:05:04;101230.97;;;18.63;75.41
78623;BME280;67943;54.412;9.502;2023-07-16T20:10:08;101228.16;;;18.66;75.48
78623;BME280;67943;54.412;9.502;2023-07-16T20:15:09;101223.75;;;18.65;75.05
78623;BME280;67943;54.412;9.502;2023-07-16T20:20:11;101228.44;;;18.60;75.45
78623;BME280;67943;54.412;9.502;2023-07-16T20:25:16;101232.94;;;18.58;75.55
78623;BME280;67943;54.412;9.502;2023-07-16T20:30:19;101228.56;;;18.57;75.81
78623;BME280;67943;54.412;9.502;2023-07-16T20:35:21;101229.84;;;18.48;75.93
78623;BME280;67943;54.412;9.502;2023-07-16T20:40:23;101230.22;;;18.41;75.91
78623;BME280;67943;54.412;9.502;2023-07-16T20:45:26;101230.50;;;18.35;76.03
78623;BME280;67943;54.412;9.502;2023-07-16T20:50:28;101222.66;;;18.32;75.82
78623;BME280;67943;54.412;9.502;2023-07-16T20:55:32;101227.72;;;18.38;75.83
78623;BME280;67943;54.412;9.502;2023-07-16T21:00:34;101225.47;;;18.29;76.21
78623;BME280;67943;54.412;9.502;2023-07-16T21:05:36;101224.66;;;18.27;76.29
78623;BME280;67943;54.412;9.502;2023-07-16T21:10:39;101221.88;;;18.30;76.13
78623;BME280;67943;54.412;9.502;2023-07-16T21:15:41;101233.19;;;18.16;76.75
78623;BME280;67943;54.412;9.502;2023-07-16T21:20:44;101237.63;;;18.15;77.17
78623;BME280;67943;54.412;9.502;2023-07-16T21:25:47;101230.44;;;18.17;77.05
78623;BME280;67943;54.412;9.502;2023-07-16T21:30:49;101232.00;;;18.03;77.56
78623;BME280;67943;54.412;9.502;2023-07-16T21:35:51;101229.53;;;17.98;77.72
78623;BME280;67943;54.412;9.502;2023-07-16T21:40:54;101230.91;;;17.88;78.10
78623;BME280;67943;54.412;9.502;2023-07-16T21:45:55;101222.94;;;17.88;78.21
78623;BME280;67943;54.412;9.502;2023-07-16T21:50:57;101224.31;;;17.76;78.57
78623;BME280;67943;54.412;9.502;2023-07-16T21:56:02;101228.13;;;17.71;78.55
78623;BME280;67943;54.412;9.502;2023-07-16T22:01:03;101218.88;;;17.79;77.90
78623;BME280;67943;54.412;9.502;2023-07-16T22:06:05;101223.84;;;17.67;77.63
78623;BME280;67943;54.412;9.502;2023-07-16T22:11:07;101214.25;;;17.63;77.66
78623;BME280;67943;54.412;9.502;2023-07-16T22:16:09;101221.47;;;17.61;77.67
78623;BME280;67943;54.412;9.502;2023-07-16T22:21:11;101223.31;;;17.59;77.27
78623;BME280;67943;54.412;9.502;2023-07-16T22:26:14;101228.25;;;17.68;76.98
78623;BME280;67943;54.412;9.502;2023-07-16T22:31:16;101233.28;;;17.53;77.44
78623;BME280;67943;54.412;9.502;2023-07-16T22:36:17;101238.63;;;17.53;78.25
78623;BME280;67943;54.412;9.502;2023-07-16T22:41:20;101238.34;;;17.60;78.63
78623;BME280;67943;54.412;9.502;2023-07-16T22:46:22;101235.16;;;17.51;79.37
78623;BME280;67943;54.412;9.502;2023-07-16T22:51:23;101235.53;;;17.42;80.41
78623;BME280;67943;54.412;9.502;2023-07-16T22:56:26;101224.53;;;17.31;80.91
78623;BME280;67943;54.412;9.502;2023-07-16T23:01:28;101225.56;;;17.27;81.07
78623;BME280;67943;54.412;9.502;2023-07-16T23:06:29;101227.44;;;17.25;81.21
78623;BME280;67943;54.412;9.502;2023-07-16T23:11:32;101230.22;;;17.22;81.20
78623;BME280;67943;54.412;9.502;2023-07-16T23:16:34;101232.88;;;17.22;80.97
78623;BME280;67943;54.412;9.502;2023-07-16T23:21:37;101231.16;;;17.21;80.40
78623;BME280;67943;54.412;9.502;2023-07-16T23:26:40;101215.19;;;17.21;79.94
78623;BME280;67943;54.412;9.502;2023-07-16T23:31:42;101217.66;;;17.26;79.35
78623;BME280;67943;54.412;9.502;2023-07-16T23:36:43;101227.81;;;17.16;79.54
78623;BME280;67943;54.412;9.502;2023-07-16T23:41:46;101223.00;;;17.04;79.59
78623;BME280;67943;54.412;9.502;2023-07-16T23:46:48;101214.25;;;17.02;79.25
78623;BME280;67943;54.412;9.502;2023-07-16T23:51:49;101212.75;;;16.95;79.17
78623;BME280;67943;54.412;9.502;2023-07-16T23:56:52;101215.81;;;17.06;78.72
